createdAt,value
2018-04-30T00:00:44.281Z,121.20
2018-04-30T00:01:44.307Z,130.00
2018-04-30T00:02:44.292Z,130.70
2018-04-30T00:03:44.274Z,133.40
2018-04-30T00:04:44.489Z,133.40
2018-04-30T00:05:44.272Z,128.20
2018-04-30T00:06:44.270Z,126.90
2018-04-30T00:07:44.274Z,132.20
2018-04-30T00:08:44.274Z,133.30
2018-04-30T00:09:44.263Z,137.20
2018-04-30T00:10:44.270Z,133.00
2018-04-30T00:11:44.266Z,131.00
2018-04-30T00:12:44.258Z,136.60
2018-04-30T00:13:44.252Z,132.30
2018-04-30T00:14:44.250Z,124.10
2018-04-30T00:15:44.257Z,125.70
2018-04-30T00:16:44.256Z,122.10
2018-04-30T00:17:44.244Z,134.00
2018-04-30T00:18:44.251Z,126.30
2018-04-30T00:19:44.248Z,125.50
2018-04-30T00:20:44.236Z,128.50
2018-04-30T00:21:44.236Z,127.90
2018-04-30T00:22:44.231Z,133.20
2018-04-30T00:23:44.229Z,130.80
2018-04-30T00:24:44.236Z,134.20
2018-04-30T00:25:44.225Z,126.90
2018-04-30T00:26:44.222Z,126.60
2018-04-30T00:27:44.231Z,128.30
2018-04-30T00:28:44.218Z,130.40
2018-04-30T00:29:44.416Z,133.70
2018-04-30T00:30:44.213Z,138.00
2018-04-30T00:31:44.410Z,139.20
2018-04-30T00:32:44.408Z,137.60
2018-04-30T00:33:44.307Z,141.20
2018-04-30T00:34:44.428Z,144.30
2018-04-30T00:35:44.423Z,141.40
2018-04-30T00:36:44.195Z,156.40
2018-04-30T00:37:44.405Z,141.30
2018-04-30T00:38:44.194Z,148.70
2018-04-30T00:39:44.197Z,148.80
2018-04-30T00:40:44.205Z,151.40
2018-04-30T00:41:44.184Z,150.10
2018-04-30T00:42:44.191Z,146.50
2018-04-30T00:43:44.381Z,146.90
2018-04-30T00:44:44.177Z,147.90
2018-04-30T00:45:44.173Z,152.20
2018-04-30T00:46:44.169Z,145.80
2018-04-30T00:47:44.171Z,143.90
2018-04-30T00:48:44.178Z,143.90
2018-04-30T00:49:44.380Z,142.50
2018-04-30T00:50:44.193Z,144.10
2018-04-30T00:51:44.161Z,147.20
2018-04-30T00:52:44.161Z,140.50
2018-04-30T00:53:44.164Z,138.00
2018-04-30T00:54:44.150Z,137.30
2018-04-30T00:55:44.161Z,135.00
2018-04-30T00:56:44.349Z,131.50
2018-04-30T00:57:44.145Z,131.70
2018-04-30T00:58:44.343Z,128.30
2018-04-30T00:59:44.137Z,128.10
2018-04-30T01:00:44.141Z,128.00
2018-04-30T01:01:44.136Z,122.70
2018-04-30T01:02:44.143Z,122.20
2018-04-30T01:03:44.139Z,120.20
2018-04-30T01:04:44.344Z,121.00
2018-04-30T01:05:44.142Z,124.00
2018-04-30T01:06:44.134Z,113.00
2018-04-30T01:07:44.134Z,115.70
2018-04-30T01:08:44.141Z,123.40
2018-04-30T01:09:44.319Z,115.70
2018-04-30T01:10:44.121Z,122.10
2018-04-30T01:11:44.314Z,121.10
2018-04-30T01:12:44.129Z,120.20
2018-04-30T01:13:44.313Z,114.70
2018-04-30T01:14:44.313Z,109.50
2018-04-30T01:15:44.106Z,120.10
2018-04-30T01:16:44.307Z,134.90
2018-04-30T01:17:44.115Z,138.10
2018-04-30T01:18:44.111Z,137.00
2018-04-30T01:19:44.310Z,144.90
2018-04-30T01:20:44.116Z,137.00
2018-04-30T01:21:44.148Z,132.80
2018-04-30T01:22:44.101Z,135.10
2018-04-30T01:23:44.315Z,138.10
2018-04-30T01:24:44.087Z,133.80
2018-04-30T01:25:44.109Z,134.50
2018-04-30T01:26:44.096Z,133.20
2018-04-30T01:27:44.296Z,129.00
2018-04-30T01:28:44.079Z,126.80
2018-04-30T01:29:44.091Z,125.90
2018-04-30T01:30:44.077Z,127.90
2018-04-30T01:31:44.073Z,121.90
2018-04-30T01:32:44.094Z,121.50
2018-04-30T01:33:44.070Z,124.20
2018-04-30T01:34:44.081Z,116.50
2018-04-30T01:35:44.086Z,114.00
2018-04-30T01:36:44.063Z,118.00
2018-04-30T01:37:44.085Z,115.20
2018-04-30T01:38:44.278Z,108.40
2018-04-30T01:39:44.074Z,106.40
2018-04-30T01:40:44.085Z,110.30
2018-04-30T01:41:44.071Z,111.70
2018-04-30T01:42:44.053Z,106.50
2018-04-30T01:43:44.065Z,105.60
2018-04-30T01:44:44.255Z,105.30
2018-04-30T01:45:44.052Z,109.10
2018-04-30T01:46:44.064Z,102.20
2018-04-30T01:47:44.047Z,94.40
2018-04-30T01:48:44.057Z,96.70
2018-04-30T01:49:44.042Z,99.80
2018-04-30T01:50:44.043Z,90.20
2018-04-30T01:51:44.036Z,87.20
2018-04-30T01:52:44.242Z,98.20
2018-04-30T01:53:44.037Z,95.80
2018-04-30T01:54:44.037Z,90.40
2018-04-30T01:55:44.033Z,96.80
2018-04-30T01:56:44.238Z,88.40
2018-04-30T01:57:44.041Z,89.30
2018-04-30T01:58:44.031Z,91.60
2018-04-30T01:59:44.231Z,88.60
2018-04-30T02:00:44.027Z,97.30
2018-04-30T02:01:44.022Z,89.90
2018-04-30T02:02:44.024Z,89.90
2018-04-30T02:03:44.020Z,86.30
2018-04-30T02:04:44.022Z,83.80
2018-04-30T02:05:44.017Z,86.50
2018-04-30T02:06:44.042Z,93.20
2018-04-30T02:07:44.030Z,87.80
2018-04-30T02:08:44.238Z,79.80
2018-04-30T02:09:44.018Z,85.90
2018-04-30T02:10:44.022Z,87.20
2018-04-30T02:11:44.019Z,83.10
2018-04-30T02:12:44.025Z,93.30
2018-04-30T02:13:44.211Z,88.40
2018-04-30T02:14:44.022Z,96.30
2018-04-30T02:15:44.005Z,98.10
2018-04-30T02:16:44.016Z,96.20
2018-04-30T02:17:44.004Z,93.40
2018-04-30T02:18:44.017Z,89.40
2018-04-30T02:19:44.204Z,93.30
2018-04-30T02:20:43.998Z,95.90
2018-04-30T02:21:44.019Z,93.20
2018-04-30T02:22:44.006Z,100.70
2018-04-30T02:23:43.995Z,103.60
2018-04-30T02:24:44.007Z,95.10
2018-04-30T02:25:44.211Z,102.30
2018-04-30T02:26:43.992Z,107.00
2018-04-30T02:27:43.991Z,101.90
2018-04-30T02:28:44.193Z,105.90
2018-04-30T02:29:44.200Z,100.60
2018-04-30T02:30:43.990Z,96.50
2018-04-30T02:31:43.986Z,100.00
2018-04-30T02:32:44.489Z,97.60
2018-04-30T02:33:44.197Z,94.20
2018-04-30T02:34:44.188Z,94.40
2018-04-30T02:35:44.185Z,94.10
2018-04-30T02:36:43.980Z,107.90
2018-04-30T02:37:43.993Z,89.70
2018-04-30T02:38:43.977Z,105.10
2018-04-30T02:39:43.998Z,100.90
2018-04-30T02:40:43.977Z,96.40
2018-04-30T02:41:44.181Z,95.90
2018-04-30T02:42:43.976Z,91.10
2018-04-30T02:43:43.972Z,95.90
2018-04-30T02:44:43.972Z,102.80
2018-04-30T02:45:43.975Z,109.20
2018-04-30T02:46:43.972Z,105.50
2018-04-30T02:47:44.185Z,107.50
2018-04-30T02:48:44.173Z,101.20
2018-04-30T02:49:44.190Z,100.50
2018-04-30T02:50:44.182Z,98.80
2018-04-30T02:51:43.966Z,109.40
2018-04-30T02:52:43.964Z,101.20
2018-04-30T02:53:44.173Z,103.00
2018-04-30T02:54:43.963Z,104.30
2018-04-30T02:55:43.962Z,110.50
2018-04-30T02:56:43.972Z,110.40
2018-04-30T02:57:43.967Z,107.80
2018-04-30T02:58:43.969Z,112.60
2018-04-30T02:59:44.161Z,108.20
2018-04-30T03:00:43.957Z,109.80
2018-04-30T03:01:43.966Z,110.30
2018-04-30T03:02:43.957Z,115.30
2018-04-30T03:03:43.961Z,111.90
2018-04-30T03:04:44.160Z,116.90
2018-04-30T03:05:44.159Z,111.70
2018-04-30T03:06:43.954Z,109.70
2018-04-30T03:07:43.952Z,115.70
2018-04-30T03:08:43.958Z,114.20
2018-04-30T03:09:44.048Z,105.90
2018-04-30T03:10:43.967Z,114.50
2018-04-30T03:11:43.943Z,109.80
2018-04-30T03:12:43.943Z,118.70
2018-04-30T03:13:43.944Z,108.30
2018-04-30T03:14:43.953Z,107.10
2018-04-30T03:15:43.942Z,103.60
2018-04-30T03:16:43.944Z,107.80
2018-04-30T03:17:43.939Z,107.80
2018-04-30T03:18:43.938Z,99.70
2018-04-30T03:19:44.139Z,98.80
2018-04-30T03:20:43.937Z,115.20
2018-04-30T03:21:43.936Z,111.00
2018-04-30T03:22:43.933Z,130.60
2018-04-30T03:23:44.139Z,115.10
2018-04-30T03:24:44.144Z,148.30
2018-04-30T03:25:43.942Z,128.60
2018-04-30T03:26:43.932Z,124.50
2018-04-30T03:27:44.142Z,122.40
2018-04-30T03:28:43.925Z,119.30
2018-04-30T03:29:43.925Z,108.60
2018-04-30T03:30:43.929Z,106.50
2018-04-30T03:31:44.137Z,113.40
2018-04-30T03:32:43.924Z,101.60
2018-04-30T03:33:43.923Z,94.60
2018-04-30T03:34:44.130Z,93.40
2018-04-30T03:35:44.123Z,94.70
2018-04-30T03:36:43.919Z,89.30
2018-04-30T03:37:43.917Z,89.20
2018-04-30T03:38:43.918Z,85.50
2018-04-30T03:39:43.927Z,86.70
2018-04-30T03:40:43.927Z,80.70
2018-04-30T03:41:43.914Z,73.80
2018-04-30T03:42:43.923Z,70.90
2018-04-30T03:43:43.914Z,68.50
2018-04-30T03:44:43.911Z,67.70
2018-04-30T03:45:43.913Z,66.90
2018-04-30T03:46:43.913Z,68.00
2018-04-30T03:47:43.921Z,64.70
2018-04-30T03:48:43.907Z,61.70
2018-04-30T03:49:43.985Z,57.80
2018-04-30T03:50:43.918Z,60.20
2018-04-30T03:51:44.119Z,58.70
2018-04-30T03:52:43.905Z,54.90
2018-04-30T03:53:43.919Z,55.70
2018-04-30T03:54:43.912Z,50.90
2018-04-30T03:55:43.910Z,52.00
2018-04-30T03:56:43.913Z,52.80
2018-04-30T03:57:43.909Z,56.70
2018-04-30T03:58:43.900Z,50.90
2018-04-30T03:59:43.905Z,51.40
2018-04-30T04:00:43.895Z,50.40
2018-04-30T04:01:43.904Z,52.10
2018-04-30T04:02:43.908Z,54.50
2018-04-30T04:03:43.893Z,55.50
2018-04-30T04:04:43.893Z,51.70
2018-04-30T04:05:43.890Z,53.60
2018-04-30T04:06:43.916Z,48.30
2018-04-30T04:07:44.091Z,51.60
2018-04-30T04:08:43.887Z,58.50
2018-04-30T04:09:43.900Z,56.20
2018-04-30T04:10:44.090Z,57.80
2018-04-30T04:11:43.899Z,55.00
2018-04-30T04:12:43.975Z,54.50
2018-04-30T04:13:43.882Z,52.90
2018-04-30T04:14:43.898Z,52.50
2018-04-30T04:15:44.097Z,51.60
2018-04-30T04:16:43.879Z,55.50
2018-04-30T04:17:43.878Z,58.10
2018-04-30T04:18:43.890Z,60.60
2018-04-30T04:19:43.885Z,66.80
2018-04-30T04:20:43.871Z,61.20
2018-04-30T04:21:43.874Z,60.60
2018-04-30T04:22:43.872Z,62.00
2018-04-30T04:23:44.072Z,59.20
2018-04-30T04:24:44.071Z,61.70
2018-04-30T04:25:43.879Z,57.10
2018-04-30T04:26:44.068Z,53.10
2018-04-30T04:27:43.865Z,50.20
2018-04-30T04:28:43.861Z,51.60
2018-04-30T04:29:43.869Z,51.40
2018-04-30T04:30:43.881Z,48.00
2018-04-30T04:31:43.861Z,50.80
2018-04-30T04:32:43.872Z,51.10
2018-04-30T04:33:43.857Z,47.00
2018-04-30T04:34:43.868Z,47.00
2018-04-30T04:35:43.865Z,45.10
2018-04-30T04:36:43.853Z,43.90
2018-04-30T04:37:43.853Z,44.30
2018-04-30T04:38:43.856Z,45.80
2018-04-30T04:39:44.052Z,46.70
2018-04-30T04:40:43.849Z,45.80
2018-04-30T04:41:43.904Z,48.30
2018-04-30T04:42:43.846Z,49.60
2018-04-30T04:43:43.842Z,49.60
2018-04-30T04:44:43.855Z,52.10
2018-04-30T04:45:43.843Z,47.10
2018-04-30T04:46:43.841Z,46.90
2018-04-30T04:47:43.837Z,52.40
2018-04-30T04:48:44.042Z,47.20
2018-04-30T04:49:43.835Z,46.10
2018-04-30T04:50:43.839Z,48.90
2018-04-30T04:51:43.848Z,44.50
2018-04-30T04:52:43.843Z,41.80
2018-04-30T04:53:44.034Z,41.60
2018-04-30T04:54:43.830Z,41.70
2018-04-30T04:55:43.830Z,39.70
2018-04-30T04:56:44.036Z,38.30
2018-04-30T04:57:44.042Z,38.60
2018-04-30T04:58:43.835Z,38.80
2018-04-30T04:59:43.836Z,39.70
2018-04-30T05:00:44.027Z,36.10
2018-04-30T05:01:43.822Z,32.50
2018-04-30T05:02:43.821Z,32.60
2018-04-30T05:03:43.822Z,31.90
2018-04-30T05:04:43.821Z,33.90
2018-04-30T05:05:43.836Z,34.30
2018-04-30T05:06:44.031Z,30.60
2018-04-30T05:07:43.830Z,32.90
2018-04-30T05:08:43.830Z,30.20
2018-04-30T05:09:44.037Z,29.20
2018-04-30T05:10:44.016Z,28.00
2018-04-30T05:11:43.808Z,27.10
2018-04-30T05:12:43.806Z,24.40
2018-04-30T05:13:43.809Z,25.80
2018-04-30T05:14:44.020Z,25.10
2018-04-30T05:16:17.391Z,23.40
2018-04-30T05:16:43.814Z,20.70
2018-04-30T05:17:43.803Z,18.70
2018-04-30T05:18:43.821Z,17.80
2018-04-30T05:19:43.801Z,17.10
2018-04-30T05:20:43.800Z,15.10
2018-04-30T05:21:43.826Z,14.30
2018-04-30T05:22:43.796Z,14.00
2018-04-30T05:23:43.999Z,13.40
2018-04-30T05:24:43.806Z,12.70
2018-04-30T05:25:43.820Z,12.90
2018-04-30T05:26:43.825Z,10.10
2018-04-30T05:27:43.788Z,9.80
2018-04-30T05:28:43.798Z,9.60
2018-04-30T05:29:43.804Z,8.60
2018-04-30T05:30:43.784Z,7.60
2018-04-30T05:31:43.796Z,7.30
2018-04-30T05:32:43.786Z,6.80
2018-04-30T05:33:43.791Z,7.50
2018-04-30T05:34:43.790Z,6.80
2018-04-30T05:35:43.787Z,6.70
2018-04-30T05:36:43.789Z,6.20
2018-04-30T05:37:43.774Z,6.60
2018-04-30T05:38:43.772Z,5.40
2018-04-30T05:39:43.976Z,5.80
2018-04-30T05:40:43.772Z,5.60
2018-04-30T05:41:43.986Z,6.00
2018-04-30T05:42:43.984Z,6.50
2018-04-30T05:43:43.776Z,6.50
2018-04-30T05:44:43.969Z,6.40
2018-04-30T05:45:43.765Z,6.60
2018-04-30T05:46:43.765Z,6.10
2018-04-30T05:47:43.763Z,5.50
2018-04-30T05:48:43.965Z,6.20
2018-04-30T05:49:43.772Z,5.80
2018-04-30T05:50:43.769Z,5.50
2018-04-30T05:51:43.770Z,6.00
2018-04-30T05:52:43.760Z,5.60
2018-04-30T05:53:43.766Z,5.60
2018-04-30T05:54:43.757Z,4.80
2018-04-30T05:55:43.756Z,4.70
2018-04-30T05:56:43.753Z,5.90
2018-04-30T05:57:43.750Z,4.80
2018-04-30T05:58:43.968Z,4.60
2018-04-30T05:59:43.752Z,4.90
2018-04-30T06:00:43.952Z,4.60
2018-04-30T06:01:43.758Z,4.60
2018-04-30T06:02:43.747Z,4.90
2018-04-30T06:03:43.744Z,4.90
2018-04-30T06:04:43.744Z,5.30
2018-04-30T06:05:43.745Z,5.20
2018-04-30T06:06:44.038Z,5.00
2018-04-30T06:07:43.739Z,5.20
2018-04-30T06:08:43.739Z,6.00
2018-04-30T06:09:43.942Z,6.00
2018-04-30T06:10:43.740Z,6.10
2018-04-30T06:11:43.734Z,5.90
2018-04-30T06:12:43.937Z,8.80
2018-04-30T06:13:43.952Z,6.20
2018-04-30T06:14:43.735Z,6.20
2018-04-30T06:15:43.739Z,5.10
2018-04-30T06:16:43.741Z,5.20
2018-04-30T06:17:43.727Z,5.30
2018-04-30T06:18:43.933Z,5.30
2018-04-30T06:19:43.740Z,4.80
2018-04-30T06:20:43.726Z,4.80
2018-04-30T06:21:43.725Z,4.90
2018-04-30T06:22:43.734Z,4.40
2018-04-30T06:23:43.721Z,4.40
2018-04-30T06:24:43.923Z,4.00
2018-04-30T06:25:43.729Z,3.80
2018-04-30T06:26:43.785Z,4.00
2018-04-30T06:27:43.717Z,4.50
2018-04-30T06:28:43.728Z,3.20
2018-04-30T06:29:43.723Z,4.00
2018-04-30T06:30:43.713Z,3.70
2018-04-30T06:31:43.723Z,4.00
2018-04-30T06:32:43.720Z,5.30
2018-04-30T06:33:43.720Z,6.10
2018-04-30T06:34:43.720Z,7.60
2018-04-30T06:35:43.720Z,6.90
2018-04-30T06:36:43.704Z,9.10
2018-04-30T06:37:43.710Z,7.50
2018-04-30T06:38:43.909Z,7.50
2018-04-30T06:39:43.701Z,7.50
2018-04-30T06:40:43.699Z,8.20
2018-04-30T06:41:43.904Z,7.90
2018-04-30T06:42:43.711Z,8.90
2018-04-30T06:43:43.913Z,8.50
2018-04-30T06:44:43.697Z,7.60
2018-04-30T06:45:43.710Z,5.70
2018-04-30T06:46:43.708Z,5.70
2018-04-30T06:47:43.695Z,5.00
2018-04-30T06:48:43.706Z,4.70
2018-04-30T06:49:43.705Z,4.70
2018-04-30T06:50:43.901Z,4.50
2018-04-30T06:51:43.689Z,4.60
2018-04-30T06:52:43.686Z,4.30
2018-04-30T06:53:43.701Z,3.90
2018-04-30T06:54:43.689Z,5.90
2018-04-30T06:55:43.891Z,9.00
2018-04-30T06:56:43.692Z,5.00
2018-04-30T06:57:43.704Z,4.10
2018-04-30T06:58:43.695Z,3.20
2018-04-30T06:59:43.680Z,3.10
2018-04-30T07:00:43.691Z,3.90
2018-04-30T07:01:43.726Z,5.40
2018-04-30T07:02:43.695Z,5.70
2018-04-30T07:03:43.674Z,4.80
2018-04-30T07:04:43.676Z,4.50
2018-04-30T07:05:43.673Z,4.60
2018-04-30T07:06:43.673Z,4.90
2018-04-30T07:07:43.672Z,5.60
2018-04-30T07:08:43.681Z,6.20
2018-04-30T07:09:43.857Z,4.90
2018-04-30T07:10:43.680Z,3.90
2018-04-30T07:11:43.663Z,3.90
2018-04-30T07:12:43.679Z,3.80
2018-04-30T07:13:43.674Z,4.10
2018-04-30T07:14:43.663Z,6.70
2018-04-30T07:15:43.688Z,4.10
2018-04-30T07:16:43.862Z,4.10
2018-04-30T07:17:43.662Z,3.90
2018-04-30T07:18:43.862Z,2.40
2018-04-30T07:19:43.656Z,2.10
2018-04-30T07:20:43.655Z,3.10
2018-04-30T07:21:43.859Z,1.70
2018-04-30T07:22:43.664Z,3.60
2018-04-30T07:23:43.662Z,3.00
2018-04-30T07:24:43.654Z,1.90
2018-04-30T07:25:43.649Z,3.30
2018-04-30T07:26:43.649Z,2.40
2018-04-30T07:27:43.911Z,2.30
2018-04-30T07:28:43.657Z,1.50
2018-04-30T07:29:43.645Z,2.90
2018-04-30T07:30:43.658Z,6.80
2018-04-30T07:31:43.643Z,3.90
2018-04-30T07:32:43.640Z,2.50
2018-04-30T07:33:43.864Z,1.40
2018-04-30T07:34:43.843Z,2.90
2018-04-30T07:35:43.841Z,2.10
2018-04-30T07:36:43.838Z,1.40
2018-04-30T07:37:43.845Z,1.60
2018-04-30T07:38:43.835Z,6.20
2018-04-30T07:39:43.834Z,4.40
2018-04-30T07:40:43.631Z,4.00
2018-04-30T07:41:43.840Z,1.70
2018-04-30T07:42:43.859Z,1.70
2018-04-30T07:43:43.645Z,2.00
2018-04-30T07:44:43.621Z,4.60
2018-04-30T07:45:43.826Z,1.50
2018-04-30T07:46:43.630Z,1.60
2018-04-30T07:47:43.837Z,2.50
2018-04-30T07:48:43.835Z,1.90
2018-04-30T07:49:43.629Z,1.50
2018-04-30T07:50:43.616Z,2.40
2018-04-30T07:51:43.616Z,1.70
2018-04-30T07:52:43.626Z,1.50
2018-04-30T07:53:43.622Z,3.20
2018-04-30T07:54:43.612Z,2.10
2018-04-30T07:55:43.619Z,2.80
2018-04-30T07:56:43.610Z,2.10
2018-04-30T07:57:43.622Z,2.20
2018-04-30T07:58:43.631Z,1.40
2018-04-30T07:59:43.606Z,2.00
2018-04-30T08:00:43.803Z,1.30
2018-04-30T08:01:43.616Z,3.90
2018-04-30T08:02:43.816Z,1.70
2018-04-30T08:03:43.613Z,3.90
2018-04-30T08:04:43.605Z,2.20
2018-04-30T08:05:43.595Z,2.40
2018-04-30T08:06:43.807Z,2.00
2018-04-30T08:07:43.606Z,1.70
2018-04-30T08:08:43.589Z,1.70
2018-04-30T08:09:43.808Z,1.70
2018-04-30T08:10:43.590Z,1.60
2018-04-30T08:11:43.595Z,2.50
2018-04-30T08:12:43.587Z,2.10
2018-04-30T08:13:43.790Z,2.70
2018-04-30T08:14:43.597Z,2.40
2018-04-30T08:15:43.580Z,2.00
2018-04-30T08:16:43.579Z,2.10
2018-04-30T08:17:43.590Z,2.10
2018-04-30T08:18:43.594Z,2.20
2018-04-30T08:19:43.776Z,1.70
2018-04-30T08:20:43.579Z,1.80
2018-04-30T08:21:43.578Z,2.40
2018-04-30T08:22:43.581Z,1.70
2018-04-30T08:23:43.572Z,1.60
2018-04-30T08:24:43.568Z,1.70
2018-04-30T08:25:43.583Z,2.30
2018-04-30T08:26:43.588Z,1.70
2018-04-30T08:27:43.565Z,2.50
2018-04-30T08:28:43.764Z,3.50
2018-04-30T08:29:43.763Z,2.60
2018-04-30T08:30:43.559Z,1.50
2018-04-30T08:31:43.769Z,3.20
2018-04-30T08:32:43.559Z,1.90
2018-04-30T08:33:43.552Z,2.10
2018-04-30T08:34:43.562Z,1.80
2018-04-30T08:35:43.573Z,1.40
2018-04-30T08:36:43.616Z,1.70
2018-04-30T08:37:43.554Z,2.80
2018-04-30T08:38:43.565Z,1.70
2018-04-30T08:39:43.545Z,1.70
2018-04-30T08:40:43.570Z,1.60
2018-04-30T08:41:43.563Z,4.30
2018-04-30T08:42:43.556Z,2.00
2018-04-30T08:43:43.550Z,1.70
2018-04-30T08:44:43.573Z,1.80
2018-04-30T08:45:43.561Z,4.00
2018-04-30T08:46:43.550Z,1.90
2018-04-30T08:47:43.542Z,2.10
2018-04-30T08:48:43.542Z,1.70
2018-04-30T08:49:43.735Z,4.70
2018-04-30T08:50:43.736Z,2.00
2018-04-30T08:51:43.757Z,2.30
2018-04-30T08:52:43.746Z,1.70
2018-04-30T08:53:43.526Z,3.40
2018-04-30T08:54:43.536Z,1.80
2018-04-30T08:55:43.521Z,2.30
2018-04-30T08:56:43.753Z,2.30
2018-04-30T08:57:43.537Z,2.10
2018-04-30T08:58:43.721Z,1.60
2018-04-30T08:59:43.543Z,1.80
2018-04-30T09:00:43.514Z,1.50
2018-04-30T09:01:43.535Z,1.90
2018-04-30T09:02:43.539Z,3.30
2018-04-30T09:03:43.520Z,2.80
2018-04-30T09:04:43.507Z,2.00
2018-04-30T09:05:43.730Z,3.40
2018-04-30T09:06:43.709Z,1.40
2018-04-30T09:07:43.716Z,3.20
2018-04-30T09:08:43.704Z,3.00
2018-04-30T09:09:43.570Z,2.10
2018-04-30T09:10:43.506Z,2.10
2018-04-30T09:11:43.700Z,1.40
2018-04-30T09:12:43.500Z,2.00
2018-04-30T09:13:43.697Z,3.80
2018-04-30T09:14:43.492Z,1.70
2018-04-30T09:15:43.491Z,1.30
2018-04-30T09:16:43.498Z,1.40
2018-04-30T09:17:43.496Z,1.60
2018-04-30T09:18:43.485Z,3.00
2018-04-30T09:19:43.485Z,1.60
2018-04-30T09:20:43.687Z,1.50
2018-04-30T09:21:43.480Z,1.60
2018-04-30T09:22:43.493Z,1.70
2018-04-30T09:23:43.488Z,2.40
2018-04-30T09:24:43.476Z,2.50
2018-04-30T09:25:43.677Z,2.00
2018-04-30T09:26:43.489Z,3.30
2018-04-30T09:27:43.489Z,2.10
2018-04-30T09:28:43.484Z,1.40
2018-04-30T09:29:43.466Z,2.30
2018-04-30T09:30:43.463Z,1.80
2018-04-30T09:31:43.462Z,1.50
2018-04-30T09:32:43.471Z,2.20
2018-04-30T09:33:43.463Z,2.40
2018-04-30T09:34:43.472Z,1.40
2018-04-30T09:35:43.456Z,3.10
2018-04-30T09:36:43.658Z,3.10
2018-04-30T09:37:43.466Z,2.00
2018-04-30T09:38:43.452Z,3.20
2018-04-30T09:39:43.452Z,1.20
2018-04-30T09:40:43.655Z,1.60
2018-04-30T09:41:43.449Z,2.90
2018-04-30T09:42:43.651Z,1.60
2018-04-30T09:43:43.446Z,1.20
2018-04-30T09:44:43.440Z,2.90
2018-04-30T09:45:43.644Z,1.20
2018-04-30T09:46:43.441Z,1.80
2018-04-30T09:47:43.450Z,1.90
2018-04-30T09:48:43.438Z,1.60
2018-04-30T09:49:43.444Z,1.30
2018-04-30T09:50:43.431Z,2.20
2018-04-30T09:51:43.431Z,1.10
2018-04-30T09:52:43.634Z,1.10
2018-04-30T09:53:43.441Z,1.40
2018-04-30T09:54:43.642Z,1.20
2018-04-30T09:55:43.642Z,1.30
2018-04-30T09:56:43.422Z,3.10
2018-04-30T09:57:43.539Z,1.90
2018-04-30T09:58:43.447Z,1.30
2018-04-30T09:59:43.623Z,1.30
2018-04-30T10:00:43.420Z,0.90
2018-04-30T10:01:43.416Z,2.40
2018-04-30T10:02:43.416Z,2.10
2018-04-30T10:03:43.425Z,1.30
2018-04-30T10:04:43.616Z,3.30
2018-04-30T10:05:43.427Z,1.00
2018-04-30T10:06:43.421Z,1.10
2018-04-30T10:07:43.620Z,1.10
2018-04-30T10:08:43.435Z,1.60
2018-04-30T10:09:43.440Z,1.50
2018-04-30T10:10:43.417Z,1.50
2018-04-30T10:11:43.404Z,2.20
2018-04-30T10:12:43.623Z,2.20
2018-04-30T10:13:43.398Z,1.10
2018-04-30T10:14:43.402Z,2.70
2018-04-30T10:15:43.394Z,1.50
2018-04-30T10:16:43.407Z,1.60
2018-04-30T10:17:43.428Z,3.80
2018-04-30T10:18:43.400Z,2.00
2018-04-30T10:19:43.399Z,2.00
2018-04-30T10:20:43.593Z,2.10
2018-04-30T10:21:43.408Z,1.90
2018-04-30T10:22:43.400Z,1.40
2018-04-30T10:23:43.452Z,1.20
2018-04-30T10:24:43.397Z,1.60
2018-04-30T10:25:43.391Z,1.30
2018-04-30T10:26:43.379Z,2.60
2018-04-30T10:27:43.414Z,2.30
2018-04-30T10:28:43.578Z,2.70
2018-04-30T10:29:43.383Z,2.40
2018-04-30T10:30:43.384Z,1.70
2018-04-30T10:31:43.599Z,1.00
2018-04-30T10:32:43.366Z,2.20
2018-04-30T10:33:43.373Z,2.00
2018-04-30T10:34:43.394Z,1.90
2018-04-30T10:35:43.568Z,1.30
2018-04-30T10:36:43.390Z,1.40
2018-04-30T10:37:43.426Z,2.30
2018-04-30T10:38:43.363Z,1.30
2018-04-30T10:39:43.576Z,1.10
2018-04-30T10:40:43.571Z,1.40
2018-04-30T10:41:43.360Z,2.30
2018-04-30T10:42:43.362Z,1.50
2018-04-30T10:43:43.571Z,1.80
2018-04-30T10:44:43.359Z,2.70
2018-04-30T10:45:43.665Z,2.00
2018-04-30T10:46:43.346Z,3.00
2018-04-30T10:47:43.361Z,1.70
2018-04-30T10:48:43.344Z,1.70
2018-04-30T10:49:43.341Z,1.10
2018-04-30T10:50:43.352Z,1.70
2018-04-30T10:51:43.438Z,2.10
2018-04-30T10:52:43.353Z,2.80
2018-04-30T10:53:43.352Z,1.10
2018-04-30T10:54:43.551Z,1.80
2018-04-30T10:55:43.337Z,3.60
2018-04-30T10:56:43.560Z,2.20
2018-04-30T10:57:43.540Z,1.10
2018-04-30T10:58:43.345Z,2.10
2018-04-30T10:59:43.342Z,2.30
2018-04-30T11:00:43.345Z,1.20
2018-04-30T11:01:43.325Z,3.60
2018-04-30T11:02:43.609Z,1.90
2018-04-30T11:03:43.319Z,5.00
2018-04-30T11:04:43.321Z,3.70
2018-04-30T11:05:43.317Z,2.30
2018-04-30T11:06:43.539Z,1.70
2018-04-30T11:07:43.314Z,1.50
2018-04-30T11:08:43.318Z,1.80
2018-04-30T11:09:43.516Z,1.20
2018-04-30T11:10:43.314Z,2.50
2018-04-30T11:11:43.518Z,2.20
2018-04-30T11:12:43.306Z,2.90
2018-04-30T11:13:43.309Z,2.20
2018-04-30T11:14:43.306Z,1.20
2018-04-30T11:15:43.521Z,2.40
2018-04-30T11:16:43.322Z,2.00
2018-04-30T11:17:43.506Z,2.30
2018-04-30T11:18:43.308Z,4.00
2018-04-30T11:19:43.302Z,4.20
2018-04-30T11:20:43.299Z,4.50
2018-04-30T11:21:43.305Z,2.40
2018-04-30T11:22:43.331Z,4.10
2018-04-30T11:23:43.295Z,2.70
2018-04-30T11:24:43.301Z,3.00
2018-04-30T11:25:43.501Z,1.90
2018-04-30T11:26:43.284Z,2.60
2018-04-30T11:27:43.320Z,6.60
2018-04-30T11:28:43.284Z,2.10
2018-04-30T11:29:43.281Z,3.10
2018-04-30T11:30:43.487Z,2.60
2018-04-30T11:31:43.481Z,1.80
2018-04-30T11:32:43.279Z,1.70
2018-04-30T11:33:43.275Z,1.00
2018-04-30T11:34:43.488Z,2.70
2018-04-30T11:35:43.286Z,1.80
2018-04-30T11:36:43.283Z,3.10
2018-04-30T11:37:43.473Z,1.50
2018-04-30T11:38:43.478Z,2.50
2018-04-30T11:39:43.264Z,1.10
2018-04-30T11:40:43.266Z,1.40
2018-04-30T11:41:43.262Z,0.90
2018-04-30T11:42:43.261Z,1.70
2018-04-30T11:43:43.289Z,1.70
2018-04-30T11:44:43.291Z,0.90
2018-04-30T11:45:43.266Z,1.80
2018-04-30T11:46:43.463Z,3.20
2018-04-30T11:47:43.252Z,3.50
2018-04-30T11:48:43.267Z,2.10
2018-04-30T11:49:43.254Z,1.80
2018-04-30T11:50:43.251Z,1.80
2018-04-30T11:51:43.278Z,1.00
2018-04-30T11:52:43.249Z,1.70
2018-04-30T11:53:43.260Z,2.60
2018-04-30T11:54:43.462Z,1.30
2018-04-30T11:55:43.342Z,2.20
2018-04-30T11:56:43.252Z,2.70
2018-04-30T11:57:43.255Z,3.60
2018-04-30T11:58:43.307Z,3.10
2018-04-30T11:59:43.239Z,6.50
2018-04-30T12:00:43.235Z,3.30
2018-04-30T12:01:43.237Z,1.60
2018-04-30T12:02:43.246Z,2.20
2018-04-30T12:03:43.249Z,2.50
2018-04-30T12:04:43.245Z,2.30
2018-04-30T12:05:43.242Z,2.00
2018-04-30T12:06:43.229Z,1.20
2018-04-30T12:07:43.231Z,2.30
2018-04-30T12:08:43.237Z,1.70
2018-04-30T12:09:43.434Z,1.10
2018-04-30T12:10:43.235Z,3.20
2018-04-30T12:11:43.222Z,1.30
2018-04-30T12:12:43.221Z,2.60
2018-04-30T12:13:43.219Z,1.90
2018-04-30T12:14:43.232Z,2.50
2018-04-30T12:15:43.227Z,1.10
2018-04-30T12:16:43.226Z,1.40
2018-04-30T12:17:43.215Z,0.80
2018-04-30T12:18:43.422Z,2.90
2018-04-30T12:19:43.242Z,1.10
2018-04-30T12:20:43.216Z,2.20
2018-04-30T12:21:43.223Z,1.90
2018-04-30T12:22:43.213Z,2.00
2018-04-30T12:23:43.206Z,1.50
2018-04-30T12:24:43.222Z,2.90
2018-04-30T12:25:43.206Z,1.90
2018-04-30T12:26:43.203Z,4.90
2018-04-30T12:27:43.213Z,1.70
2018-04-30T12:28:43.226Z,4.00
2018-04-30T12:29:43.299Z,2.10
2018-04-30T12:30:43.202Z,3.10
2018-04-30T12:31:43.198Z,1.20
2018-04-30T12:32:43.195Z,2.30
2018-04-30T12:33:43.410Z,2.20
2018-04-30T12:34:43.204Z,1.20
2018-04-30T12:35:43.396Z,1.80
2018-04-30T12:36:43.194Z,1.40
2018-04-30T12:37:43.190Z,2.00
2018-04-30T12:38:43.199Z,1.70
2018-04-30T12:39:43.187Z,2.30
2018-04-30T12:40:43.402Z,3.70
2018-04-30T12:41:43.199Z,3.00
2018-04-30T12:42:43.183Z,1.80
2018-04-30T12:43:43.267Z,2.90
2018-04-30T12:44:43.188Z,1.60
2018-04-30T12:45:43.178Z,1.90
2018-04-30T12:46:43.180Z,1.60
2018-04-30T12:47:43.190Z,0.80
2018-04-30T12:48:43.197Z,1.20
2018-04-30T12:49:43.405Z,2.10
2018-04-30T12:50:43.405Z,1.40
2018-04-30T12:51:43.180Z,4.80
2018-04-30T12:52:43.186Z,1.10
2018-04-30T12:53:43.165Z,1.80
2018-04-30T12:54:43.379Z,3.70
2018-04-30T12:55:43.184Z,1.70
2018-04-30T12:56:43.402Z,2.00
2018-04-30T12:57:43.193Z,2.10
2018-04-30T12:58:43.375Z,2.30
2018-04-30T12:59:43.157Z,2.30
2018-04-30T13:00:43.359Z,2.20
2018-04-30T13:01:43.169Z,2.00
2018-04-30T13:02:43.358Z,2.10